sensor_id;sensor_type;location;lat;lon;timestamp;temperature;humidity
2839;DHT22;1427;48.510;9.060;2023-07-29T00:00:15;17.50;99.90
2839;DHT22;1427;48.510;9.060;2023-07-29T00:02:43;17.60;99.90
2839;DHT22;1427;48.510;9.060;2023-07-29T00:05:14;17.50;99.90
2839;DHT22;1427;48.510;9.060;2023-07-29T00:07:42;17.40;99.90
2839;DHT22;1427;48.510;9.060;2023-07-29T00:10:10;17.30;99.90
2839;DHT22;1427;48.510;9.060;2023-07-29T00:12:38;17.40;99.90
2839;DHT22;1427;48.510;9.060;2023-07-29T00:15:07;17.30;99.90
2839;DHT22;1427;48.510;9.060;2023-07-29T00:17:35;17.30;99.90
2839;DHT22;1427;48.510;9.060;2023-07-29T00:20:04;17.30;99.90
2839;DHT22;1427;48.510;9.060;2023-07-29T00:22:36;17.30;99.90
2839;DHT22;1427;48.510;9.060;2023-07-29T00:25:05;17.30;99.90
2839;DHT22;1427;48.510;9.060;2023-07-29T00:27:33;17.20;99.90
2839;DHT22;1427;48.510;9.060;2023-07-29T00:30:01;17.30;99.90
2839;DHT22;1427;48.510;9.060;2023-07-29T00:32:29;17.20;99.90
2839;DHT22;1427;48.510;9.060;2023-07-29T00:34:58;17.30;99.90
2839;DHT22;1427;48.510;9.060;2023-07-29T00:37:28;17.20;99.90
2839;DHT22;1427;48.510;9.060;2023-07-29T00:39:57;17.20;99.90
2839;DHT22;1427;48.510;9.060;2023-07-29T00:42:25;17.20;99.90
2839;DHT22;1427;48.510;9.060;2023-07-29T00:44:53;17.20;99.90
2839;DHT22;1427;48.510;9.060;2023-07-29T00:47:22;17.20;99.90
2839;DHT22;1427;48.510;9.060;2023-07-29T00:49:52;17.10;99.90
2839;DHT22;1427;48.510;9.060;2023-07-29T00:52:20;17.20;99.90
2839;DHT22;1427;48.510;9.060;2023-07-29T00:54:48;17.20;99.90
2839;DHT22;1427;48.510;9.060;2023-07-29T00:57:18;17.20;99.90
2839;DHT22;1427;48.510;9.060;2023-07-29T00:59:47;17.20;99.90
2839;DHT22;1427;48.510;9.060;2023-07-29T01:02:15;17.20;99.90
2839;DHT22;1427;48.510;9.060;2023-07-29T01:04:43;17.10;99.90
2839;DHT22;1427;48.510;9.060;2023-07-29T01:10:39;17.20;99.90
2839;DHT22;1427;48.510;9.060;2023-07-29T01:13:16;17.20;99.90
2839;DHT22;1427;48.510;9.060;2023-07-29T01:15:50;17.20;99.90
2839;DHT22;1427;48.510;9.060;2023-07-29T01:18:23;17.10;99.90
2839;DHT22;1427;48.510;9.060;2023-07-29T01:20:53;17.10;99.90
2839;DHT22;1427;48.510;9.060;2023-07-29T01:23:25;17.10;99.90
2839;DHT22;1427;48.510;9.060;2023-07-29T01:25:53;17.10;99.90
2839;DHT22;1427;48.510;9.060;2023-07-29T01:28:21;17.30;99.90
2839;DHT22;1427;48.510;9.060;2023-07-29T01:30:54;17.20;99.90
2839;DHT22;1427;48.510;9.060;2023-07-29T01:33:26;17.20;99.90
2839;DHT22;1427;48.510;9.060;2023-07-29T01:35:58;17.20;99.90
2839;DHT22;1427;48.510;9.060;2023-07-29T01:38:32;17.10;99.90
2839;DHT22;1427;48.510;9.060;2023-07-29T01:41:02;17.20;99.90
2839;DHT22;1427;48.510;9.060;2023-07-29T01:43:31;17.20;99.90
2839;DHT22;1427;48.510;9.060;2023-07-29T01:46:00;17.20;99.90
2839;DHT22;1427;48.510;9.060;2023-07-29T01:48:28;17.30;99.90
2839;DHT22;1427;48.510;9.060;2023-07-29T01:50:58;17.10;99.90
2839;DHT22;1427;48.510;9.060;2023-07-29T01:53:26;17.20;99.90
2839;DHT22;1427;48.510;9.060;2023-07-29T01:55:56;17.10;99.90
2839;DHT22;1427;48.510;9.060;2023-07-29T01:58:24;17.10;99.90
2839;DHT22;1427;48.510;9.060;2023-07-29T02:00:52;17.20;99.90
2839;DHT22;1427;48.510;9.060;2023-07-29T02:03:20;17.10;99.90
2839;DHT22;1427;48.510;9.060;2023-07-29T02:05:48;17.30;99.90
2839;DHT22;1427;48.510;9.060;2023-07-29T02:08:16;17.20;99.90
2839;DHT22;1427;48.510;9.060;2023-07-29T02:10:44;17.20;99.90
2839;DHT22;1427;48.510;9.060;2023-07-29T02:13:15;17.20;99.90
2839;DHT22;1427;48.510;9.060;2023-07-29T02:15:43;17.20;99.90
2839;DHT22;1427;48.510;9.060;2023-07-29T02:18:11;17.20;99.90
2839;DHT22;1427;48.510;9.060;2023-07-29T02:20:39;17.10;99.90
2839;DHT22;1427;48.510;9.060;2023-07-29T02:23:07;17.10;99.90
2839;DHT22;1427;48.510;9.060;2023-07-29T02:25:35;17.10;99.90
2839;DHT22;1427;48.510;9.060;2023-07-29T02:28:04;17.00;99.90
2839;DHT22;1427;48.510;9.060;2023-07-29T02:30:33;17.10;99.90
2839;DHT22;1427;48.510;9.060;2023-07-29T02:33:01;17.00;99.90
2839;DHT22;1427;48.510;9.060;2023-07-29T02:35:29;17.00;99.90
2839;DHT22;1427;48.510;9.060;2023-07-29T02:37:58;17.10;99.90
2839;DHT22;1427;48.510;9.060;2023-07-29T02:40:26;16.90;99.90
2839;DHT22;1427;48.510;9.060;2023-07-29T02:42:56;16.90;99.90
2839;DHT22;1427;48.510;9.060;2023-07-29T02:45:24;16.90;99.90
2839;DHT22;1427;48.510;9.060;2023-07-29T02:47:53;16.80;99.90
2839;DHT22;1427;48.510;9.060;2023-07-29T02:50:21;16.80;99.90
2839;DHT22;1427;48.510;9.060;2023-07-29T02:52:49;16.80;99.90
2839;DHT22;1427;48.510;9.060;2023-07-29T02:55:18;17.00;99.90
2839;DHT22;1427;48.510;9.060;2023-07-29T02:57:46;17.00;99.90
2839;DHT22;1427;48.510;9.060;2023-07-29T03:00:15;16.90;99.90
2839;DHT22;1427;48.510;9.060;2023-07-29T03:02:43;16.90;99.90
2839;DHT22;1427;48.510;9.060;2023-07-29T03:05:12;16.80;99.90
2839;DHT22;1427;48.510;9.060;2023-07-29T03:07:41;16.80;99.90
2839;DHT22;1427;48.510;9.060;2023-07-29T03:10:09;16.80;99.90
2839;DHT22;1427;48.510;9.060;2023-07-29T03:12:38;16.90;99.90
2839;DHT22;1427;48.510;9.060;2023-07-29T03:15:07;16.90;99.90
2839;DHT22;1427;48.510;9.060;2023-07-29T03:17:35;16.90;99.90
2839;DHT22;1427;48.510;9.060;2023-07-29T03:20:04;16.80;99.90
2839;DHT22;1427;48.510;9.060;2023-07-29T03:22:33;16.80;99.90
2839;DHT22;1427;48.510;9.060;2023-07-29T03:25:01;16.90;99.90
2839;DHT22;1427;48.510;9.060;2023-07-29T03:27:30;16.80;99.90
2839;DHT22;1427;48.510;9.060;2023-07-29T03:29:58;16.80;99.90
2839;DHT22;1427;48.510;9.060;2023-07-29T03:32:26;16.80;99.90
2839;DHT22;1427;48.510;9.060;2023-07-29T03:34:55;16.80;99.90
2839;DHT22;1427;48.510;9.060;2023-07-29T03:37:23;16.80;99.90
2839;DHT22;1427;48.510;9.060;2023-07-29T03:39:53;16.80;99.90
2839;DHT22;1427;48.510;9.060;2023-07-29T03:42:21;16.70;99.90
2839;DHT22;1427;48.510;9.060;2023-07-29T03:44:49;16.70;99.90
2839;DHT22;1427;48.510;9.060;2023-07-29T03:47:17;16.80;99.90
2839;DHT22;1427;48.510;9.060;2023-07-29T03:49:45;16.70;99.90
2839;DHT22;1427;48.510;9.060;2023-07-29T03:52:13;16.70;99.90
2839;DHT22;1427;48.510;9.060;2023-07-29T03:54:41;16.70;99.90
2839;DHT22;1427;48.510;9.060;2023-07-29T03:57:11;16.70;99.90
2839;DHT22;1427;48.510;9.060;2023-07-29T03:59:39;16.70;99.90
2839;DHT22;1427;48.510;9.060;2023-07-29T04:02:07;16.80;99.90
2839;DHT22;1427;48.510;9.060;2023-07-29T04:04:36;17.00;99.90
2839;DHT22;1427;48.510;9.060;2023-07-29T04:07:05;16.90;99.90
2839;DHT22;1427;48.510;9.060;2023-07-29T04:09:33;16.90;99.90
2839;DHT22;1427;48.510;9.060;2023-07-29T04:12:02;16.90;99.90
2839;DHT22;1427;48.510;9.060;2023-07-29T04:14:31;16.90;99.90
2839;DHT22;1427;48.510;9.060;2023-07-29T04:16:59;16.90;99.90
2839;DHT22;1427;48.510;9.060;2023-07-29T04:19:27;16.90;99.90
2839;DHT22;1427;48.510;9.060;2023-07-29T04:21:55;16.90;99.90
2839;DHT22;1427;48.510;9.060;2023-07-29T04:24:24;16.90;99.90
2839;DHT22;1427;48.510;9.060;2023-07-29T04:26:52;16.90;99.90
2839;DHT22;1427;48.510;9.060;2023-07-29T04:29:20;16.90;99.90
2839;DHT22;1427;48.510;9.060;2023-07-29T04:31:51;16.90;99.90
2839;DHT22;1427;48.510;9.060;2023-07-29T04:34:19;16.90;99.90
2839;DHT22;1427;48.510;9.060;2023-07-29T04:36:47;16.90;99.90
2839;DHT22;1427;48.510;9.060;2023-07-29T04:39:15;17.00;99.90
2839;DHT22;1427;48.510;9.060;2023-07-29T04:41:43;17.00;99.90
2839;DHT22;1427;48.510;9.060;2023-07-29T04:44:11;16.90;99.90
2839;DHT22;1427;48.510;9.060;2023-07-29T04:46:40;17.00;99.90
2839;DHT22;1427;48.510;9.060;2023-07-29T04:49:09;17.30;99.90
2839;DHT22;1427;48.510;9.060;2023-07-29T04:51:37;17.20;99.90
2839;DHT22;1427;48.510;9.060;2023-07-29T04:54:05;17.10;99.90
2839;DHT22;1427;48.510;9.060;2023-07-29T04:56:33;17.10;99.90
2839;DHT22;1427;48.510;9.060;2023-07-29T04:59:02;17.10;99.90
2839;DHT22;1427;48.510;9.060;2023-07-29T05:01:30;17.10;99.90
2839;DHT22;1427;48.510;9.060;2023-07-29T05:03:59;17.10;99.90
2839;DHT22;1427;48.510;9.060;2023-07-29T05:06:28;17.00;99.90
2839;DHT22;1427;48.510;9.060;2023-07-29T05:08:57;17.10;99.90
2839;DHT22;1427;48.510;9.060;2023-07-29T05:11:25;17.10;99.90
2839;DHT22;1427;48.510;9.060;2023-07-29T05:13:53;17.00;99.90
2839;DHT22;1427;48.510;9.060;2023-07-29T05:16:21;17.00;99.90
2839;DHT22;1427;48.510;9.060;2023-07-29T05:18:49;17.00;99.90
2839;DHT22;1427;48.510;9.060;2023-07-29T05:21:18;17.30;99.90
2839;DHT22;1427;48.510;9.060;2023-07-29T05:23:47;17.20;99.90
2839;DHT22;1427;48.510;9.060;2023-07-29T05:26:15;17.30;99.90
2839;DHT22;1427;48.510;9.060;2023-07-29T05:28:43;17.30;99.90
2839;DHT22;1427;48.510;9.060;2023-07-29T05:31:11;17.40;99.90
2839;DHT22;1427;48.510;9.060;2023-07-29T05:33:39;17.70;99.90
2839;DHT22;1427;48.510;9.060;2023-07-29T05:36:08;17.50;99.90
2839;DHT22;1427;48.510;9.060;2023-07-29T05:38:36;17.50;99.90
2839;DHT22;1427;48.510;9.060;2023-07-29T05:41:05;17.60;99.90
2839;DHT22;1427;48.510;9.060;2023-07-29T05:43:33;17.70;99.90
2839;DHT22;1427;48.510;9.060;2023-07-29T05:46:02;17.70;99.90
2839;DHT22;1427;48.510;9.060;2023-07-29T05:48:30;17.80;99.90
2839;DHT22;1427;48.510;9.060;2023-07-29T05:50:59;17.90;99.90
2839;DHT22;1427;48.510;9.060;2023-07-29T05:53:29;18.00;99.90
2839;DHT22;1427;48.510;9.060;2023-07-29T05:55:57;18.20;99.90
2839;DHT22;1427;48.510;9.060;2023-07-29T05:58:27;18.00;99.90
2839;DHT22;1427;48.510;9.060;2023-07-29T06:00:58;18.00;99.90
2839;DHT22;1427;48.510;9.060;2023-07-29T06:03:26;18.20;99.90
2839;DHT22;1427;48.510;9.060;2023-07-29T06:05:55;18.30;99.90
2839;DHT22;1427;48.510;9.060;2023-07-29T06:08:23;18.50;99.90
2839;DHT22;1427;48.510;9.060;2023-07-29T06:10:51;18.60;99.90
2839;DHT22;1427;48.510;9.060;2023-07-29T06:13:19;18.60;99.90
2839;DHT22;1427;48.510;9.060;2023-07-29T06:15:48;18.70;99.90
2839;DHT22;1427;48.510;9.060;2023-07-29T06:18:16;18.60;99.90
2839;DHT22;1427;48.510;9.060;2023-07-29T06:20:45;18.70;99.90
2839;DHT22;1427;48.510;9.060;2023-07-29T06:23:13;18.70;99.90
2839;DHT22;1427;48.510;9.060;2023-07-29T06:25:41;18.70;99.90
2839;DHT22;1427;48.510;9.060;2023-07-29T06:28:09;18.80;99.90
2839;DHT22;1427;48.510;9.060;2023-07-29T06:30:37;18.80;99.90
2839;DHT22;1427;48.510;9.060;2023-07-29T06:33:06;18.80;99.90
2839;DHT22;1427;48.510;9.060;2023-07-29T06:35:34;18.80;99.90
2839;DHT22;1427;48.510;9.060;2023-07-29T06:38:02;18.90;99.90
2839;DHT22;1427;48.510;9.060;2023-07-29T06:40:30;18.90;99.90
2839;DHT22;1427;48.510;9.060;2023-07-29T06:42:58;18.90;99.90
2839;DHT22;1427;48.510;9.060;2023-07-29T06:45:26;18.90;99.90
2839;DHT22;1427;48.510;9.060;2023-07-29T06:47:55;18.90;99.90
2839;DHT22;1427;48.510;9.060;2023-07-29T06:50:25;18.80;99.90
2839;DHT22;1427;48.510;9.060;2023-07-29T06:52:53;18.70;99.90
2839;DHT22;1427;48.510;9.060;2023-07-29T06:55:21;18.60;99.90
2839;DHT22;1427;48.510;9.060;2023-07-29T06:57:49;18.50;99.90
2839;DHT22;1427;48.510;9.060;2023-07-29T07:00:17;18.70;99.90
2839;DHT22;1427;48.510;9.060;2023-07-29T07:02:46;18.50;99.90
2839;DHT22;1427;48.510;9.060;2023-07-29T07:05:14;18.50;99.90
2839;DHT22;1427;48.510;9.060;2023-07-29T07:07:44;18.40;99.90
2839;DHT22;1427;48.510;9.060;2023-07-29T07:10:13;18.50;99.90
2839;DHT22;1427;48.510;9.060;2023-07-29T07:12:42;18.40;99.90
2839;DHT22;1427;48.510;9.060;2023-07-29T07:15:10;18.60;99.90
2839;DHT22;1427;48.510;9.060;2023-07-29T07:17:39;18.60;99.90
2839;DHT22;1427;48.510;9.060;2023-07-29T07:20:07;18.60;99.90
2839;DHT22;1427;48.510;9.060;2023-07-29T07:22:36;18.60;99.90
2839;DHT22;1427;48.510;9.060;2023-07-29T07:25:07;18.70;99.90
2839;DHT22;1427;48.510;9.060;2023-07-29T07:27:35;18.80;99.90
2839;DHT22;1427;48.510;9.060;2023-07-29T07:30:04;18.90;99.90
2839;DHT22;1427;48.510;9.060;2023-07-29T07:32:33;19.00;99.90
2839;DHT22;1427;48.510;9.060;2023-07-29T07:35:01;19.00;99.90
2839;DHT22;1427;48.510;9.060;2023-07-29T07:37:29;19.10;99.90
2839;DHT22;1427;48.510;9.060;2023-07-29T07:39:57;19.40;99.90
2839;DHT22;1427;48.510;9.060;2023-07-29T07:42:26;19.20;99.90
2839;DHT22;1427;48.510;9.060;2023-07-29T07:44:54;19.30;99.90
2839;DHT22;1427;48.510;9.060;2023-07-29T07:47:22;19.30;99.90
2839;DHT22;1427;48.510;9.060;2023-07-29T07:49:51;19.20;99.90
2839;DHT22;1427;48.510;9.060;2023-07-29T07:52:19;19.20;99.90
2839;DHT22;1427;48.510;9.060;2023-07-29T07:54:52;19.20;99.90
2839;DHT22;1427;48.510;9.060;2023-07-29T07:57:20;19.20;99.90
2839;DHT22;1427;48.510;9.060;2023-07-29T07:59:50;19.20;99.90
2839;DHT22;1427;48.510;9.060;2023-07-29T08:02:19;19.20;99.90
2839;DHT22;1427;48.510;9.060;2023-07-29T08:04:47;19.40;99.90
2839;DHT22;1427;48.510;9.060;2023-07-29T08:07:15;19.50;99.90
2839;DHT22;1427;48.510;9.060;2023-07-29T08:09:43;19.50;99.90
2839;DHT22;1427;48.510;9.060;2023-07-29T08:12:11;19.40;99.90
2839;DHT22;1427;48.510;9.060;2023-07-29T08:14:40;19.40;99.90
2839;DHT22;1427;48.510;9.060;2023-07-29T08:17:09;19.40;99.90
2839;DHT22;1427;48.510;9.060;2023-07-29T08:19:37;19.40;99.90
2839;DHT22;1427;48.510;9.060;2023-07-29T08:22:05;19.60;99.90
2839;DHT22;1427;48.510;9.060;2023-07-29T08:24:33;19.50;99.90
2839;DHT22;1427;48.510;9.060;2023-07-29T08:27:01;19.50;99.90
2839;DHT22;1427;48.510;9.060;2023-07-29T08:29:29;19.50;99.90
2839;DHT22;1427;48.510;9.060;2023-07-29T08:31:57;19.60;99.90
2839;DHT22;1427;48.510;9.060;2023-07-29T08:34:27;19.70;99.90
2839;DHT22;1427;48.510;9.060;2023-07-29T08:36:55;19.70;99.90
2839;DHT22;1427;48.510;9.060;2023-07-29T08:39:23;19.90;99.90
2839;DHT22;1427;48.510;9.060;2023-07-29T08:41:56;19.70;99.90
2839;DHT22;1427;48.510;9.060;2023-07-29T08:44:27;19.70;99.90
2839;DHT22;1427;48.510;9.060;2023-07-29T08:46:59;19.80;99.90
2839;DHT22;1427;48.510;9.060;2023-07-29T08:49:30;19.90;99.90
2839;DHT22;1427;48.510;9.060;2023-07-29T08:51:59;20.10;99.90
2839;DHT22;1427;48.510;9.060;2023-07-29T08:54:28;20.30;99.90
2839;DHT22;1427;48.510;9.060;2023-07-29T08:56:56;20.50;99.90
2839;DHT22;1427;48.510;9.060;2023-07-29T08:59:25;20.70;99.90
2839;DHT22;1427;48.510;9.060;2023-07-29T09:01:54;21.10;99.90
2839;DHT22;1427;48.510;9.060;2023-07-29T09:04:24;21.30;99.90
2839;DHT22;1427;48.510;9.060;2023-07-29T09:06:54;21.60;99.90
2839;DHT22;1427;48.510;9.060;2023-07-29T09:09:23;21.60;99.90
2839;DHT22;1427;48.510;9.060;2023-07-29T09:11:51;21.90;99.90
2839;DHT22;1427;48.510;9.060;2023-07-29T09:14:20;21.90;99.90
2839;DHT22;1427;48.510;9.060;2023-07-29T09:16:48;22.10;99.90
2839;DHT22;1427;48.510;9.060;2023-07-29T09:19:16;22.20;99.90
2839;DHT22;1427;48.510;9.060;2023-07-29T09:21:46;22.30;99.90
2839;DHT22;1427;48.510;9.060;2023-07-29T09:24:17;22.40;99.90
2839;DHT22;1427;48.510;9.060;2023-07-29T09:26:49;22.70;99.90
2839;DHT22;1427;48.510;9.060;2023-07-29T09:29:22;23.00;99.90
2839;DHT22;1427;48.510;9.060;2023-07-29T09:31:50;23.10;99.90
2839;DHT22;1427;48.510;9.060;2023-07-29T09:34:19;23.20;99.90
2839;DHT22;1427;48.510;9.060;2023-07-29T09:36:50;23.30;99.90
2839;DHT22;1427;48.510;9.060;2023-07-29T09:39:23;23.40;99.90
2839;DHT22;1427;48.510;9.060;2023-07-29T09:41:51;23.60;99.90
2839;DHT22;1427;48.510;9.060;2023-07-29T09:44:19;23.70;99.90
2839;DHT22;1427;48.510;9.060;2023-07-29T09:46:48;23.90;99.90
2839;DHT22;1427;48.510;9.060;2023-07-29T09:49:16;24.00;99.90
2839;DHT22;1427;48.510;9.060;2023-07-29T09:51:44;24.30;99.90
2839;DHT22;1427;48.510;9.060;2023-07-29T09:54:12;24.40;99.90
2839;DHT22;1427;48.510;9.060;2023-07-29T09:56:44;24.20;99.90
2839;DHT22;1427;48.510;9.060;2023-07-29T09:59:12;23.90;99.90
2839;DHT22;1427;48.510;9.060;2023-07-29T10:01:41;23.80;99.90
2839;DHT22;1427;48.510;9.060;2023-07-29T10:04:11;23.90;99.90
2839;DHT22;1427;48.510;9.060;2023-07-29T10:09:11;23.90;99.90
2839;DHT22;1427;48.510;9.060;2023-07-29T10:11:42;24.00;99.90
2839;DHT22;1427;48.510;9.060;2023-07-29T10:14:11;24.30;99.90
2839;DHT22;1427;48.510;9.060;2023-07-29T10:16:40;24.40;99.90
2839;DHT22;1427;48.510;9.060;2023-07-29T10:19:09;24.40;99.90
2839;DHT22;1427;48.510;9.060;2023-07-29T10:21:41;24.50;99.90
2839;DHT22;1427;48.510;9.060;2023-07-29T10:24:15;24.60;99.90
2839;DHT22;1427;48.510;9.060;2023-07-29T10:26:49;24.70;99.90
2839;DHT22;1427;48.510;9.060;2023-07-29T10:29:19;24.70;99.90
2839;DHT22;1427;48.510;9.060;2023-07-29T10:31:48;24.70;99.90
2839;DHT22;1427;48.510;9.060;2023-07-29T10:34:20;24.60;99.90
2839;DHT22;1427;48.510;9.060;2023-07-29T10:36:50;24.40;99.90
2839;DHT22;1427;48.510;9.060;2023-07-29T10:39:19;24.60;99.90
2839;DHT22;1427;48.510;9.060;2023-07-29T10:41:59;24.70;99.90
2839;DHT22;1427;48.510;9.060;2023-07-29T10:44:47;24.60;99.90
2839;DHT22;1427;48.510;9.060;2023-07-29T10:47:18;24.80;99.90
2839;DHT22;1427;48.510;9.060;2023-07-29T10:49:50;24.90;99.90
2839;DHT22;1427;48.510;9.060;2023-07-29T10:52:32;25.10;99.90
2839;DHT22;1427;48.510;9.060;2023-07-29T10:55:25;25.30;99.90
2839;DHT22;1427;48.510;9.060;2023-07-29T10:58:07;25.10;99.90
2839;DHT22;1427;48.510;9.060;2023-07-29T11:00:36;25.00;99.90
2839;DHT22;1427;48.510;9.060;2023-07-29T11:03:06;24.90;99.90
2839;DHT22;1427;48.510;9.060;2023-07-29T11:05:45;25.00;99.90
2839;DHT22;1427;48.510;9.060;2023-07-29T11:08:26;25.10;99.90
2839;DHT22;1427;48.510;9.060;2023-07-29T11:11:00;25.10;99.90
2839;DHT22;1427;48.510;9.060;2023-07-29T11:13:31;25.20;99.90
2839;DHT22;1427;48.510;9.060;2023-07-29T11:15:59;25.00;99.90
2839;DHT22;1427;48.510;9.060;2023-07-29T11:18:30;24.90;99.90
2839;DHT22;1427;48.510;9.060;2023-07-29T11:20:58;24.70;99.90
2839;DHT22;1427;48.510;9.060;2023-07-29T11:23:28;24.90;99.90
2839;DHT22;1427;48.510;9.060;2023-07-29T11:25:57;24.90;99.90
2839;DHT22;1427;48.510;9.060;2023-07-29T11:28:25;24.90;99.90
2839;DHT22;1427;48.510;9.060;2023-07-29T11:30:56;24.70;99.90
2839;DHT22;1427;48.510;9.060;2023-07-29T11:33:25;24.70;99.90
2839;DHT22;1427;48.510;9.060;2023-07-29T11:35:55;24.80;99.90
2839;DHT22;1427;48.510;9.060;2023-07-29T11:38:23;24.80;99.90
2839;DHT22;1427;48.510;9.060;2023-07-29T11:40:59;24.70;99.90
2839;DHT22;1427;48.510;9.060;2023-07-29T11:43:27;24.80;99.90
2839;DHT22;1427;48.510;9.060;2023-07-29T11:45:56;24.90;99.90
2839;DHT22;1427;48.510;9.060;2023-07-29T11:48:31;24.60;99.90
2839;DHT22;1427;48.510;9.060;2023-07-29T11:51:00;24.50;99.90
2839;DHT22;1427;48.510;9.060;2023-07-29T11:53:29;24.70;99.90
2839;DHT22;1427;48.510;9.060;2023-07-29T11:55:58;24.70;99.90
2839;DHT22;1427;48.510;9.060;2023-07-29T11:58:26;24.80;99.90
2839;DHT22;1427;48.510;9.060;2023-07-29T12:00:56;24.70;99.90
2839;DHT22;1427;48.510;9.060;2023-07-29T12:03:25;24.80;99.90
2839;DHT22;1427;48.510;9.060;2023-07-29T12:05:53;24.90;99.90
2839;DHT22;1427;48.510;9.060;2023-07-29T12:08:22;25.00;99.90
2839;DHT22;1427;48.510;9.060;2023-07-29T12:10:50;25.10;99.90
2839;DHT22;1427;48.510;9.060;2023-07-29T12:13:18;25.20;99.90
2839;DHT22;1427;48.510;9.060;2023-07-29T12:15:46;25.00;99.90
2839;DHT22;1427;48.510;9.060;2023-07-29T12:18:15;24.80;99.90
2839;DHT22;1427;48.510;9.060;2023-07-29T12:20:44;24.90;99.90
2839;DHT22;1427;48.510;9.060;2023-07-29T12:23:12;25.10;99.90
2839;DHT22;1427;48.510;9.060;2023-07-29T12:25:40;25.20;99.90
2839;DHT22;1427;48.510;9.060;2023-07-29T12:28:08;25.30;99.90
2839;DHT22;1427;48.510;9.060;2023-07-29T12:30:41;25.40;99.90
2839;DHT22;1427;48.510;9.060;2023-07-29T12:33:09;25.50;99.90
2839;DHT22;1427;48.510;9.060;2023-07-29T12:35:39;25.60;99.90
2839;DHT22;1427;48.510;9.060;2023-07-29T12:38:07;25.40;99.90
2839;DHT22;1427;48.510;9.060;2023-07-29T12:40:38;25.40;99.90
2839;DHT22;1427;48.510;9.060;2023-07-29T12:43:07;25.40;99.90
2839;DHT22;1427;48.510;9.060;2023-07-29T12:45:36;25.30;99.90
2839;DHT22;1427;48.510;9.060;2023-07-29T12:48:06;25.10;99.90
2839;DHT22;1427;48.510;9.060;2023-07-29T12:50:34;25.00;99.90
2839;DHT22;1427;48.510;9.060;2023-07-29T12:53:04;25.20;99.90
2839;DHT22;1427;48.510;9.060;2023-07-29T12:55:32;25.20;99.90
2839;DHT22;1427;48.510;9.060;2023-07-29T12:58:00;25.20;99.90
2839;DHT22;1427;48.510;9.060;2023-07-29T13:00:28;25.20;99.90
2839;DHT22;1427;48.510;9.060;2023-07-29T13:02:57;25.20;99.90
2839;DHT22;1427;48.510;9.060;2023-07-29T13:05:25;25.40;99.90
2839;DHT22;1427;48.510;9.060;2023-07-29T13:07:52;25.30;99.90
2839;DHT22;1427;48.510;9.060;2023-07-29T13:10:22;25.20;99.90
2839;DHT22;1427;48.510;9.060;2023-07-29T13:12:50;25.20;99.90
2839;DHT22;1427;48.510;9.060;2023-07-29T13:15:18;25.20;99.90
2839;DHT22;1427;48.510;9.060;2023-07-29T13:17:46;25.30;99.90
2839;DHT22;1427;48.510;9.060;2023-07-29T13:20:14;25.40;99.90
2839;DHT22;1427;48.510;9.060;2023-07-29T13:22:42;25.40;99.90
2839;DHT22;1427;48.510;9.060;2023-07-29T13:25:10;25.30;99.90
2839;DHT22;1427;48.510;9.060;2023-07-29T13:27:40;25.20;99.90
2839;DHT22;1427;48.510;9.060;2023-07-29T13:30:09;25.20;99.90
2839;DHT22;1427;48.510;9.060;2023-07-29T13:32:37;25.20;99.90
2839;DHT22;1427;48.510;9.060;2023-07-29T13:35:05;25.30;99.90
2839;DHT22;1427;48.510;9.060;2023-07-29T13:37:34;25.30;99.90
2839;DHT22;1427;48.510;9.060;2023-07-29T13:40:02;25.30;99.90
2839;DHT22;1427;48.510;9.060;2023-07-29T13:42:30;25.40;99.90
2839;DHT22;1427;48.510;9.060;2023-07-29T13:45:01;25.40;99.90
2839;DHT22;1427;48.510;9.060;2023-07-29T13:47:29;25.40;99.90
2839;DHT22;1427;48.510;9.060;2023-07-29T13:49:59;25.30;99.90
2839;DHT22;1427;48.510;9.060;2023-07-29T13:52:27;25.20;99.90
2839;DHT22;1427;48.510;9.060;2023-07-29T13:54:55;25.20;99.90
2839;DHT22;1427;48.510;9.060;2023-07-29T13:57:23;25.30;99.90
2839;DHT22;1427;48.510;9.060;2023-07-29T13:59:51;25.40;99.90
2839;DHT22;1427;48.510;9.060;2023-07-29T14:02:20;25.40;99.90
2839;DHT22;1427;48.510;9.060;2023-07-29T14:04:48;25.40;99.90
2839;DHT22;1427;48.510;9.060;2023-07-29T14:07:16;25.40;99.90
2839;DHT22;1427;48.510;9.060;2023-07-29T14:09:45;25.50;99.90
2839;DHT22;1427;48.510;9.060;2023-07-29T14:12:13;25.50;99.90
2839;DHT22;1427;48.510;9.060;2023-07-29T14:14:42;25.60;99.90
2839;DHT22;1427;48.510;9.060;2023-07-29T14:17:10;25.30;99.90
2839;DHT22;1427;48.510;9.060;2023-07-29T14:19:40;25.40;99.90
2839;DHT22;1427;48.510;9.060;2023-07-29T14:22:08;25.40;99.90
2839;DHT22;1427;48.510;9.060;2023-07-29T14:24:36;25.50;99.90
2839;DHT22;1427;48.510;9.060;2023-07-29T14:27:05;25.60;99.90
2839;DHT22;1427;48.510;9.060;2023-07-29T14:29:33;25.80;99.90
2839;DHT22;1427;48.510;9.060;2023-07-29T14:32:01;25.70;99.90
2839;DHT22;1427;48.510;9.060;2023-07-29T14:34:29;25.70;99.90
2839;DHT22;1427;48.510;9.060;2023-07-29T14:36:59;25.70;99.90
2839;DHT22;1427;48.510;9.060;2023-07-29T14:39:27;25.60;99.90
2839;DHT22;1427;48.510;9.060;2023-07-29T14:41:55;25.60;99.90
2839;DHT22;1427;48.510;9.060;2023-07-29T14:44:29;25.60;99.90
2839;DHT22;1427;48.510;9.060;2023-07-29T14:46:58;25.50;99.90
2839;DHT22;1427;48.510;9.060;2023-07-29T14:49:26;25.50;99.90
2839;DHT22;1427;48.510;9.060;2023-07-29T14:51:54;25.40;99.90
2839;DHT22;1427;48.510;9.060;2023-07-29T14:54:25;25.40;99.90
2839;DHT22;1427;48.510;9.060;2023-07-29T14:56:53;25.40;99.90
2839;DHT22;1427;48.510;9.060;2023-07-29T14:59:22;25.40;99.90
2839;DHT22;1427;48.510;9.060;2023-07-29T15:01:50;25.40;99.90
2839;DHT22;1427;48.510;9.060;2023-07-29T15:04:18;25.20;99.90
2839;DHT22;1427;48.510;9.060;2023-07-29T15:06:47;25.20;99.90
2839;DHT22;1427;48.510;9.060;2023-07-29T15:09:17;25.10;99.90
2839;DHT22;1427;48.510;9.060;2023-07-29T15:11:47;25.10;99.90
2839;DHT22;1427;48.510;9.060;2023-07-29T15:14:15;25.10;99.90
2839;DHT22;1427;48.510;9.060;2023-07-29T15:16:44;25.20;99.90
2839;DHT22;1427;48.510;9.060;2023-07-29T15:19:12;25.20;99.90
2839;DHT22;1427;48.510;9.060;2023-07-29T15:21:44;25.20;99.90
2839;DHT22;1427;48.510;9.060;2023-07-29T15:24:13;25.20;99.90
2839;DHT22;1427;48.510;9.060;2023-07-29T15:26:41;25.20;99.90
2839;DHT22;1427;48.510;9.060;2023-07-29T15:29:11;25.30;99.90
2839;DHT22;1427;48.510;9.060;2023-07-29T15:31:40;25.20;99.90
2839;DHT22;1427;48.510;9.060;2023-07-29T15:34:08;25.20;99.90
2839;DHT22;1427;48.510;9.060;2023-07-29T15:36:36;25.20;99.90
2839;DHT22;1427;48.510;9.060;2023-07-29T15:39:04;25.20;99.90
2839;DHT22;1427;48.510;9.060;2023-07-29T15:41:32;25.20;99.90
2839;DHT22;1427;48.510;9.060;2023-07-29T15:44:01;25.10;99.90
2839;DHT22;1427;48.510;9.060;2023-07-29T15:46:30;25.10;99.90
2839;DHT22;1427;48.510;9.060;2023-07-29T15:48:59;25.10;99.90
2839;DHT22;1427;48.510;9.060;2023-07-29T15:51:27;25.20;99.90
2839;DHT22;1427;48.510;9.060;2023-07-29T15:53:55;25.10;99.90
2839;DHT22;1427;48.510;9.060;2023-07-29T15:56:23;25.10;99.90
2839;DHT22;1427;48.510;9.060;2023-07-29T15:58:51;25.00;99.90
2839;DHT22;1427;48.510;9.060;2023-07-29T16:01:19;25.00;99.90
2839;DHT22;1427;48.510;9.060;2023-07-29T16:03:48;24.90;99.90
2839;DHT22;1427;48.510;9.060;2023-07-29T16:06:17;24.90;99.90
2839;DHT22;1427;48.510;9.060;2023-07-29T16:08:45;24.90;99.90
2839;DHT22;1427;48.510;9.060;2023-07-29T16:11:13;24.90;99.90
2839;DHT22;1427;48.510;9.060;2023-07-29T16:13:41;24.90;99.90
2839;DHT22;1427;48.510;9.060;2023-07-29T16:16:09;24.60;99.90
2839;DHT22;1427;48.510;9.060;2023-07-29T16:18:37;24.30;99.90